Time;durP1;ratioP1;P1;durP2;ratioP2;P2;SDS_P1;SDS_P2;PMS_P1;PMS_P2;Temp;Humidity;BMP_temperature;BMP_pressure;BME280_temperature;BME280_humidity;BME280_pressure;Samples;Min_cycle;Max_cycle;Signal;HPM_P1;HPM_P2
2022/06/26 00:00:49;;;;;;;3.67;3.43;;;;;;;;;;5055776;28;20886;-69
2022/06/26 00:03:15;;;;;;;4.83;4.50;;;;;;;;;;5053854;28;20427;-67
2022/06/26 00:05:41;;;;;;;6.10;4.17;;;;;;;;;;5055703;28;20410;-73
2022/06/26 00:08:08;;;;;;;5.37;5.07;;;;;;;;;;5055639;28;20408;-72
2022/06/26 00:10:34;;;;;;;9.93;4.47;;;;;;;;;;5055772;28;20412;-74
2022/06/26 00:13:00;;;;;;;4.00;3.80;;;;;;;;;;5055637;28;20460;-73
2022/06/26 00:15:26;;;;;;;4.50;4.40;;;;;;;;;;5055272;28;20493;-73
2022/06/26 00:17:52;;;;;;;4.70;4.40;;;;;;;;;;5054302;28;20428;-73
2022/06/26 00:20:21;;;;;;;5.63;4.17;;;;;;;;;;5055426;28;20421;-74
2022/06/26 00:22:46;;;;;;;4.50;4.30;;;;;;;;;;5055449;28;20399;-67
2022/06/26 00:25:12;;;;;;;4.30;4.20;;;;;;;;;;5055358;28;20415;-67
2022/06/26 00:27:39;;;;;;;7.50;3.80;;;;;;;;;;5055360;28;20419;-74
2022/06/26 00:30:06;;;;;;;4.10;3.97;;;;;;;;;;5055199;28;20477;-73
2022/06/26 00:32:32;;;;;;;4.77;4.40;;;;;;;;;;5053989;28;20426;-69
2022/06/26 00:34:58;;;;;;;4.67;4.40;;;;;;;;;;5055141;28;20482;-72
2022/06/26 00:37:24;;;;;;;6.13;4.70;;;;;;;;;;5053908;28;20881;-72
2022/06/26 00:39:50;;;;;;;6.83;4.30;;;;;;;;;;5055262;28;20534;-73
2022/06/26 00:42:16;;;;;;;5.77;4.27;;;;;;;;;;5055016;28;20420;-71
2022/06/26 00:44:42;;;;;;;5.13;4.77;;;;;;;;;;5054992;28;20446;-73
2022/06/26 00:47:08;;;;;;;5.17;4.73;;;;;;;;;;5054972;28;20499;-70
2022/06/26 00:49:34;;;;;;;5.93;5.63;;;;;;;;;;5054932;28;20780;-72
2022/06/26 00:52:01;;;;;;;5.60;5.30;;;;;;;;;;5053589;28;20419;-71
2022/06/26 00:54:29;;;;;;;4.93;4.60;;;;;;;;;;5054753;28;20423;-68
2022/06/26 00:56:58;;;;;;;4.90;4.47;;;;;;;;;;5054752;28;20786;-72
2022/06/26 00:59:25;;;;;;;5.07;4.87;;;;;;;;;;5053429;28;20422;-71
2022/06/26 01:01:51;;;;;;;4.40;4.20;;;;;;;;;;5054677;28;20400;-71
2022/06/26 01:04:17;;;;;;;5.00;4.80;;;;;;;;;;5054620;28;20497;-70
2022/06/26 01:06:43;;;;;;;5.00;4.80;;;;;;;;;;5054541;28;20495;-68
2022/06/26 01:09:12;;;;;;;4.93;4.70;;;;;;;;;;5054502;28;20498;-70
2022/06/26 01:11:39;;;;;;;6.43;4.60;;;;;;;;;;5054473;28;20403;-68
2022/06/26 01:14:05;;;;;;;5.27;4.97;;;;;;;;;;5054248;28;20478;-69
2022/06/26 01:16:31;;;;;;;5.00;4.70;;;;;;;;;;5052117;28;20485;-72
2022/06/26 01:18:58;;;;;;;5.27;4.97;;;;;;;;;;5054571;28;20400;-69
2022/06/26 01:21:24;;;;;;;4.33;4.23;;;;;;;;;;5054581;28;20399;-69
2022/06/26 01:23:50;;;;;;;5.27;4.73;;;;;;;;;;5054230;28;20887;-72
2022/06/26 01:26:17;;;;;;;5.40;4.67;;;;;;;;;;5054230;28;20480;-72
2022/06/26 01:28:43;;;;;;;5.00;4.53;;;;;;;;;;5054221;28;20493;-71
2022/06/26 01:31:09;;;;;;;6.00;5.07;;;;;;;;;;5054079;28;20452;-68
2022/06/26 01:33:36;;;;;;;6.07;5.67;;;;;;;;;;5054070;28;20762;-70
2022/06/26 01:36:02;;;;;;;6.43;5.90;;;;;;;;;;5053984;28;20853;-68
2022/06/26 01:38:28;;;;;;;5.90;5.30;;;;;;;;;;5054070;28;20468;-67
2022/06/26 01:40:54;;;;;;;6.17;5.57;;;;;;;;;;5054017;28;20460;-69
2022/06/26 01:43:22;;;;;;;5.30;5.00;;;;;;;;;;5053418;28;20472;-67
2022/06/26 01:45:50;;;;;;;4.50;4.20;;;;;;;;;;5053893;28;20930;-71
2022/06/26 01:48:17;;;;;;;4.60;4.30;;;;;;;;;;5053945;28;20473;-72
2022/06/26 01:50:43;;;;;;;5.30;4.40;;;;;;;;;;5053789;28;20883;-71
2022/06/26 01:53:09;;;;;;;4.30;4.10;;;;;;;;;;5053673;28;20407;-72
2022/06/26 01:55:35;;;;;;;3.73;3.53;;;;;;;;;;5053984;28;20478;-73
2022/06/26 01:58:02;;;;;;;4.30;4.20;;;;;;;;;;5054261;28;20397;-70
2022/06/26 02:00:31;;;;;;;9.40;4.17;;;;;;;;;;5054222;28;20514;-67
2022/06/26 02:02:57;;;;;;;4.77;4.37;;;;;;;;;;5054486;28;20417;-72
2022/06/26 02:05:24;;;;;;;3.80;3.60;;;;;;;;;;5054317;28;20407;-68
2022/06/26 02:07:50;;;;;;;4.00;3.80;;;;;;;;;;5054501;28;20405;-70
2022/06/26 02:15:47;;;;;;;4.33;4.00;;;;;;;;;;5053396;28;20887;-71
2022/06/26 02:18:13;;;;;;;4.30;3.93;;;;;;;;;;5053480;28;20406;-74
2022/06/26 02:20:39;;;;;;;4.27;3.97;;;;;;;;;;5053477;28;20408;-74
2022/06/26 02:23:05;;;;;;;4.00;3.73;;;;;;;;;;5053378;28;20744;-67
2022/06/26 02:25:31;;;;;;;4.57;4.27;;;;;;;;;;5053322;28;20447;-72
2022/06/26 02:27:57;;;;;;;5.23;4.30;;;;;;;;;;5053097;28;20406;-73
2022/06/26 02:30:23;;;;;;;4.73;4.43;;;;;;;;;;5053246;28;20419;-70
2022/06/26 02:32:49;;;;;;;4.37;4.10;;;;;;;;;;5053370;28;20477;-72
2022/06/26 02:35:15;;;;;;;4.60;3.93;;;;;;;;;;5053153;28;20465;-71
2022/06/26 02:37:41;;;;;;;4.60;4.40;;;;;;;;;;5053276;28;20902;-71
2022/06/26 02:40:07;;;;;;;4.53;4.23;;;;;;;;;;5053167;28;20403;-70
2022/06/26 02:42:33;;;;;;;5.03;4.37;;;;;;;;;;5053200;28;20423;-73
2022/06/26 02:44:59;;;;;;;4.27;3.97;;;;;;;;;;5053115;28;20426;-70
2022/06/26 02:47:26;;;;;;;4.53;4.43;;;;;;;;;;5053197;28;20503;-71
2022/06/26 02:49:52;;;;;;;7.30;6.60;;;;;;;;;;5053149;28;20415;-73
2022/06/26 02:52:18;;;;;;;7.73;7.17;;;;;;;;;;5053061;28;20409;-71
2022/06/26 02:54:44;;;;;;;9.33;7.73;;;;;;;;;;5053036;28;20833;-73
2022/06/26 02:57:10;;;;;;;8.03;7.23;;;;;;;;;;5053052;28;20410;-72
2022/06/26 02:59:36;;;;;;;6.30;5.87;;;;;;;;;;5053062;28;20412;-69
2022/06/26 03:02:02;;;;;;;6.83;6.43;;;;;;;;;;5053009;28;20409;-70
2022/06/26 03:04:28;;;;;;;6.40;6.00;;;;;;;;;;5052963;28;20437;-71
2022/06/26 03:06:53;;;;;;;6.60;6.40;;;;;;;;;;5053056;28;20864;-70
2022/06/26 03:09:19;;;;;;;6.93;6.43;;;;;;;;;;5052905;28;20419;-67
2022/06/26 03:11:45;;;;;;;6.30;5.90;;;;;;;;;;5052820;28;20406;-70
2022/06/26 03:14:11;;;;;;;6.90;5.60;;;;;;;;;;5052662;28;20473;-69
2022/06/26 03:16:37;;;;;;;6.77;6.13;;;;;;;;;;5052883;28;20464;-71
2022/06/26 03:19:03;;;;;;;6.10;5.10;;;;;;;;;;5052884;28;20764;-71
2022/06/26 03:21:29;;;;;;;5.30;4.80;;;;;;;;;;5052836;28;20414;-70
2022/06/26 03:24:01;;;;;;;6.87;4.60;;;;;;;;;;5052753;28;20404;-69
2022/06/26 03:26:28;;;;;;;4.80;4.70;;;;;;;;;;5052754;28;20403;-70
2022/06/26 03:29:03;;;;;;;8.40;5.07;;;;;;;;;;5052726;28;20407;-71
2022/06/26 03:31:29;;;;;;;4.73;4.63;;;;;;;;;;5052638;28;20461;-67
2022/06/26 03:33:55;;;;;;;7.20;5.10;;;;;;;;;;5052756;28;20448;-71
2022/06/26 03:36:22;;;;;;;4.80;4.57;;;;;;;;;;5052622;28;20484;-70
2022/06/26 03:38:48;;;;;;;7.53;4.83;;;;;;;;;;5053873;28;20399;-70
2022/06/26 03:41:14;;;;;;;6.10;5.70;;;;;;;;;;5056174;28;20440;-73
2022/06/26 03:43:40;;;;;;;4.80;4.60;;;;;;;;;;5056242;28;20416;-66
2022/06/26 03:46:06;;;;;;;5.13;4.50;;;;;;;;;;5054793;28;20434;-69
2022/06/26 03:48:32;;;;;;;4.67;4.13;;;;;;;;;;5056125;28;20413;-70
2022/06/26 03:50:58;;;;;;;4.63;4.30;;;;;;;;;;5056086;28;20421;-66
2022/06/26 03:53:25;;;;;;;4.17;4.03;;;;;;;;;;5054713;28;20491;-67
2022/06/26 03:55:51;;;;;;;5.30;4.70;;;;;;;;;;5055972;28;20563;-71
2022/06/26 03:58:17;;;;;;;4.20;3.97;;;;;;;;;;5055932;28;20818;-68
2022/06/26 04:00:43;;;;;;;4.87;4.47;;;;;;;;;;5055845;28;20518;-70
2022/06/26 04:03:09;;;;;;;4.53;4.20;;;;;;;;;;5055802;28;20405;-68
2022/06/26 04:05:39;;;;;;;4.97;4.57;;;;;;;;;;5055726;28;20419;-70
2022/06/26 04:08:06;;;;;;;4.50;4.10;;;;;;;;;;5055844;28;20408;-66
2022/06/26 04:10:32;;;;;;;10.23;4.53;;;;;;;;;;5055755;28;20479;-66
2022/06/26 04:13:00;;;;;;;5.10;4.70;;;;;;;;;;5055691;28;20877;-66
2022/06/26 04:15:26;;;;;;;5.27;4.80;;;;;;;;;;5055386;28;20492;-66
2022/06/26 04:17:52;;;;;;;4.73;4.53;;;;;;;;;;5055735;28;20446;-72
2022/06/26 04:20:19;;;;;;;4.50;4.20;;;;;;;;;;5055453;28;20444;-69
2022/06/26 04:22:54;;;;;;;4.33;4.23;;;;;;;;;;5055873;28;20433;-70
2022/06/26 04:25:20;;;;;;;4.67;4.20;;;;;;;;;;5055405;28;20444;-68
2022/06/26 04:27:46;;;;;;;8.07;4.37;;;;;;;;;;5055385;28;20814;-71
2022/06/26 04:30:12;;;;;;;4.93;4.70;;;;;;;;;;5055278;28;20420;-70
2022/06/26 04:32:38;;;;;;;4.93;4.37;;;;;;;;;;5055277;28;20503;-70
2022/06/26 04:35:04;;;;;;;4.70;4.50;;;;;;;;;;5055221;28;20474;-71
2022/06/26 04:37:30;;;;;;;5.87;5.23;;;;;;;;;;5055226;28;20411;-66
2022/06/26 04:39:56;;;;;;;6.50;5.90;;;;;;;;;;5055156;28;20884;-68
2022/06/26 04:42:22;;;;;;;5.37;5.10;;;;;;;;;;5055206;28;20458;-70
2022/06/26 04:44:48;;;;;;;8.63;5.53;;;;;;;;;;5055010;28;20876;-65
2022/06/26 04:47:14;;;;;;;14.87;5.27;;;;;;;;;;5055072;28;20405;-66
2022/06/26 04:49:40;;;;;;;5.23;4.90;;;;;;;;;;5054847;28;20422;-71
2022/06/26 04:52:06;;;;;;;5.60;5.17;;;;;;;;;;5054898;28;20400;-72
2022/06/26 04:54:32;;;;;;;5.43;4.73;;;;;;;;;;5054688;28;20415;-71
2022/06/26 04:56:58;;;;;;;6.43;4.87;;;;;;;;;;5053455;28;20524;-71
2022/06/26 04:59:24;;;;;;;6.97;4.27;;;;;;;;;;5053369;28;21188;-70
2022/06/26 05:01:50;;;;;;;5.70;4.30;;;;;;;;;;5054166;28;20542;-73
2022/06/26 05:04:16;;;;;;;4.30;4.00;;;;;;;;;;5054684;28;20172;-73
2022/06/26 05:06:42;;;;;;;4.70;4.40;;;;;;;;;;5054565;28;20494;-72
2022/06/26 05:09:08;;;;;;;4.83;4.43;;;;;;;;;;5054550;28;20454;-69
2022/06/26 05:11:34;;;;;;;4.10;3.80;;;;;;;;;;5054492;28;20411;-68
2022/06/26 05:14:00;;;;;;;7.13;4.90;;;;;;;;;;5054293;28;20798;-71
2022/06/26 05:16:26;;;;;;;8.57;4.77;;;;;;;;;;5054273;28;20520;-73
2022/06/26 05:18:52;;;;;;;4.67;4.57;;;;;;;;;;5054414;28;20402;-70
2022/06/26 05:21:18;;;;;;;5.73;5.33;;;;;;;;;;5054387;28;20440;-71
2022/06/26 05:23:44;;;;;;;5.57;5.20;;;;;;;;;;5049294;28;20412;-69
2022/06/26 05:26:10;;;;;;;4.73;4.50;;;;;;;;;;5032997;28;20400;-72
2022/06/26 05:28:36;;;;;;;6.10;5.70;;;;;;;;;;5032936;28;20425;-72
2022/06/26 05:31:02;;;;;;;5.27;4.97;;;;;;;;;;5032881;28;20799;-73
2022/06/26 05:33:28;;;;;;;54.17;38.50;;;;;;;;;;5031615;28;20421;-70
2022/06/26 05:35:54;;;;;;;11.70;6.40;;;;;;;;;;5032776;28;20560;-71
2022/06/26 05:38:20;;;;;;;6.60;6.00;;;;;;;;;;5032808;28;20460;-72
2022/06/26 05:40:46;;;;;;;6.87;5.87;;;;;;;;;;5032694;28;20417;-68
2022/06/26 05:43:12;;;;;;;7.80;5.77;;;;;;;;;;5032680;28;20845;-72
2022/06/26 05:45:38;;;;;;;11.00;5.30;;;;;;;;;;5032554;28;20416;-69
2022/06/26 05:48:04;;;;;;;6.00;5.47;;;;;;;;;;5047965;28;20807;-69
2022/06/26 05:50:30;;;;;;;6.63;5.03;;;;;;;;;;5032620;28;20429;-70
2022/06/26 05:52:56;;;;;;;4.20;3.80;;;;;;;;;;5047912;28;20713;-72
2022/06/26 05:55:22;;;;;;;4.20;3.90;;;;;;;;;;5032527;28;20458;-73
2022/06/26 05:57:48;;;;;;;3.90;3.80;;;;;;;;;;5032452;28;20420;-71
2022/06/26 06:00:15;;;;;;;4.30;4.10;;;;;;;;;;5032361;28;20500;-71
2022/06/26 06:02:41;;;;;;;4.30;4.10;;;;;;;;;;5030389;28;20424;-70
2022/06/26 06:05:07;;;;;;;5.37;3.70;;;;;;;;;;5033688;28;20415;-66
2022/06/26 06:07:35;;;;;;;24.27;21.80;;;;;;;;;;5049004;28;20960;-72
2022/06/26 06:10:01;;;;;;;7.03;4.80;;;;;;;;;;5033588;28;20933;-65
2022/06/26 06:12:27;;;;;;;9.33;8.70;;;;;;;;;;5033556;28;20445;-68
2022/06/26 06:14:53;;;;;;;6.33;3.40;;;;;;;;;;5033136;28;20490;-66
2022/06/26 06:17:37;;;;;;;5.17;4.87;;;;;;;;;;5033476;28;20411;-67
2022/06/26 06:20:11;;;;;;;3.40;3.30;;;;;;;;;;5033506;28;20401;-68
2022/06/26 06:22:37;;;;;;;6.87;3.43;;;;;;;;;;5033492;28;20398;-66
2022/06/26 06:25:03;;;;;;;3.07;2.90;;;;;;;;;;5033416;28;20434;-69
2022/06/26 06:27:29;;;;;;;3.50;3.40;;;;;;;;;;5033413;28;20989;-67
2022/06/26 06:29:55;;;;;;;3.50;3.03;;;;;;;;;;5033324;28;20498;-69
2022/06/26 06:32:21;;;;;;;3.60;3.30;;;;;;;;;;5033416;28;20434;-66
2022/06/26 06:34:47;;;;;;;3.87;3.53;;;;;;;;;;5033200;28;20469;-69
2022/06/26 06:37:13;;;;;;;3.50;3.40;;;;;;;;;;5033211;28;20992;-68
2022/06/26 06:39:39;;;;;;;6.63;4.07;;;;;;;;;;5033265;28;20497;-69
2022/06/26 06:42:05;;;;;;;4.00;3.90;;;;;;;;;;5033261;28;20419;-70
2022/06/26 06:44:31;;;;;;;4.57;4.03;;;;;;;;;;5033207;28;20454;-68
2022/06/26 06:46:57;;;;;;;4.33;3.80;;;;;;;;;;5048540;28;20870;-67
2022/06/26 06:49:23;;;;;;;4.10;3.80;;;;;;;;;;5033158;28;20413;-68
2022/06/26 06:51:49;;;;;;;4.67;3.47;;;;;;;;;;5033158;28;20454;-67
2022/06/26 06:54:15;;;;;;;20.13;18.00;;;;;;;;;;5033115;28;20901;-68
2022/06/26 06:56:41;;;;;;;4.73;4.50;;;;;;;;;;5033013;28;20472;-72
2022/06/26 06:59:07;;;;;;;4.57;4.37;;;;;;;;;;5033159;28;20616;-67
2022/06/26 07:01:33;;;;;;;5.37;3.80;;;;;;;;;;5033068;28;20421;-68
2022/06/26 07:04:00;;;;;;;3.23;3.13;;;;;;;;;;5033141;28;20406;-68
2022/06/26 07:06:26;;;;;;;5.93;3.60;;;;;;;;;;5032955;28;20415;-68
2022/06/26 07:08:52;;;;;;;168.60;33.80;;;;;;;;;;5033005;28;20418;-68
2022/06/26 07:11:19;;;;;;;32.93;21.20;;;;;;;;;;5032854;28;20410;-70
2022/06/26 07:13:45;;;;;;;16.30;10.60;;;;;;;;;;5033997;28;20476;-72
2022/06/26 07:16:11;;;;;;;5.37;3.17;;;;;;;;;;5036639;28;20998;-71
2022/06/26 07:18:37;;;;;;;4.43;4.27;;;;;;;;;;5036699;28;20410;-70
2022/06/26 07:21:03;;;;;;;8.33;3.30;;;;;;;;;;5036671;28;20402;-70
2022/06/26 07:23:29;;;;;;;3.13;2.90;;;;;;;;;;5036661;28;20415;-67
2022/06/26 07:25:56;;;;;;;4.70;3.47;;;;;;;;;;5036594;28;20415;-67
2022/06/26 07:28:22;;;;;;;4.03;3.63;;;;;;;;;;5036571;28;20894;-69
2022/06/26 07:30:48;;;;;;;8.80;2.53;;;;;;;;;;5036569;28;20419;-71
2022/06/26 07:35:59;;;;;;;3.50;3.20;;;;;;;;;;5042134;28;20828;-69
2022/06/26 07:38:25;;;;;;;2.70;2.60;;;;;;;;;;5043475;28;20406;-71
2022/06/26 07:40:51;;;;;;;3.03;2.93;;;;;;;;;;5042405;28;20499;-67
2022/06/26 07:43:16;;;;;;;10.77;4.20;;;;;;;;;;5036404;28;20437;-66
2022/06/26 07:45:42;;;;;;;3.27;2.97;;;;;;;;;;5036166;28;20454;-66
2022/06/26 07:48:08;;;;;;;4.07;3.70;;;;;;;;;;5051563;28;20414;-66
2022/06/26 07:50:34;;;;;;;3.10;2.93;;;;;;;;;;5036191;28;20519;-66
2022/06/26 07:53:00;;;;;;;3.43;2.73;;;;;;;;;;5036058;28;20403;-68
2022/06/26 07:55:27;;;;;;;4.20;3.13;;;;;;;;;;5035926;28;20459;-67
2022/06/26 07:57:53;;;;;;;2.70;2.60;;;;;;;;;;5036169;28;20482;-66
2022/06/26 08:00:19;;;;;;;5.50;3.10;;;;;;;;;;5035959;28;20436;-68
2022/06/26 08:02:45;;;;;;;3.00;3.00;;;;;;;;;;5051372;28;20425;-68
2022/06/26 08:05:11;;;;;;;13.73;12.40;;;;;;;;;;5051219;28;20428;-67
2022/06/26 08:07:37;;;;;;;2.87;2.77;;;;;;;;;;5035968;28;20412;-68
2022/06/26 08:10:03;;;;;;;7.33;3.10;;;;;;;;;;5051253;28;20442;-71
2022/06/26 08:12:29;;;;;;;2.90;2.40;;;;;;;;;;5051252;28;20415;-68
2022/06/26 08:14:55;;;;;;;3.80;2.47;;;;;;;;;;5035529;28;20494;-68
2022/06/26 08:17:21;;;;;;;4.50;2.67;;;;;;;;;;5035677;28;20762;-68
2022/06/26 08:19:48;;;;;;;2.87;2.70;;;;;;;;;;5035717;28;20472;-68
2022/06/26 08:22:14;;;;;;;2.63;2.43;;;;;;;;;;5035725;28;20406;-67
2022/06/26 08:24:41;;;;;;;2.30;2.20;;;;;;;;;;5035118;28;20430;-68
2022/06/26 08:27:08;;;;;;;2.20;2.10;;;;;;;;;;5035440;28;20394;-70
2022/06/26 08:29:34;;;;;;;2.20;2.10;;;;;;;;;;5050634;28;20985;-69
2022/06/26 08:32:00;;;;;;;2.67;2.57;;;;;;;;;;5035365;28;20411;-71
2022/06/26 08:34:26;;;;;;;3.10;2.20;;;;;;;;;;5050969;28;20792;-71
2022/06/26 08:36:53;;;;;;;5.13;2.70;;;;;;;;;;5035267;28;20823;-68
2022/06/26 08:39:20;;;;;;;2.73;2.63;;;;;;;;;;5035275;28;20429;-68
2022/06/26 08:41:46;;;;;;;2.10;2.10;;;;;;;;;;5035229;28;20446;-68
2022/06/26 08:44:13;;;;;;;2.60;2.27;;;;;;;;;;5035195;28;20426;-70
2022/06/26 08:46:43;;;;;;;3.73;2.60;;;;;;;;;;5035039;28;20423;-71
2022/06/26 08:49:10;;;;;;;2.70;2.60;;;;;;;;;;5035061;28;20410;-72
2022/06/26 08:51:41;;;;;;;2.30;2.20;;;;;;;;;;5034963;28;20402;-67
2022/06/26 08:54:09;;;;;;;2.53;2.40;;;;;;;;;;5035240;28;20766;-69
2022/06/26 08:56:36;;;;;;;2.80;2.20;;;;;;;;;;5034859;28;20867;-70
2022/06/26 08:59:02;;;;;;;3.13;2.83;;;;;;;;;;5050186;28;20427;-67
2022/06/26 09:01:28;;;;;;;3.23;2.67;;;;;;;;;;5050004;28;20432;-70
2022/06/26 09:03:54;;;;;;;1.97;1.97;;;;;;;;;;5034749;28;20874;-68
2022/06/26 09:06:20;;;;;;;2.90;2.70;;;;;;;;;;5034842;28;20490;-70
2022/06/26 09:08:50;;;;;;;2.83;2.63;;;;;;;;;;5034605;28;20895;-70
2022/06/26 09:11:17;;;;;;;2.70;2.50;;;;;;;;;;5034568;28;20410;-70
2022/06/26 09:13:44;;;;;;;3.20;2.53;;;;;;;;;;5034438;28;20463;-70
2022/06/26 09:16:10;;;;;;;2.23;2.13;;;;;;;;;;5034723;28;20526;-69
2022/06/26 09:18:38;;;;;;;1.93;1.83;;;;;;;;;;5034399;28;20417;-70
2022/06/26 09:21:05;;;;;;;2.40;2.23;;;;;;;;;;5034454;28;20411;-71
2022/06/26 09:23:32;;;;;;;2.57;2.37;;;;;;;;;;5034431;28;20422;-69
2022/06/26 09:25:58;;;;;;;1.83;1.83;;;;;;;;;;5034317;28;20397;-70
2022/06/26 09:28:24;;;;;;;5.60;1.80;;;;;;;;;;5034327;28;20421;-70
2022/06/26 09:30:52;;;;;;;4.10;2.27;;;;;;;;;;5034128;28;20653;-69
2022/06/26 09:33:22;;;;;;;2.10;2.00;;;;;;;;;;5034132;28;20907;-71
2022/06/26 09:35:48;;;;;;;1.90;1.90;;;;;;;;;;5033798;28;20528;-69
2022/06/26 09:38:18;;;;;;;1.63;1.53;;;;;;;;;;5033961;28;20862;-69
2022/06/26 09:40:48;;;;;;;2.10;2.10;;;;;;;;;;5034134;28;20419;-69
2022/06/26 09:43:27;;;;;;;2.30;2.20;;;;;;;;;;5034011;28;20403;-69
2022/06/26 09:45:54;;;;;;;2.53;2.40;;;;;;;;;;5033950;28;20420;-69
2022/06/26 09:48:21;;;;;;;2.50;2.50;;;;;;;;;;5033971;28;20488;-69
2022/06/26 09:50:47;;;;;;;2.00;1.90;;;;;;;;;;5049260;28;20432;-70
2022/06/26 09:53:14;;;;;;;2.20;2.10;;;;;;;;;;5033892;28;20466;-69
2022/06/26 09:55:41;;;;;;;2.10;2.00;;;;;;;;;;5049127;28;20479;-71
2022/06/26 09:58:08;;;;;;;2.30;2.10;;;;;;;;;;5033702;28;20403;-70
2022/06/26 10:00:35;;;;;;;2.30;2.10;;;;;;;;;;5033439;28;20408;-73
2022/06/26 10:08:32;;;;;;;2.20;2.10;;;;;;;;;;5033812;28;20408;-72
2022/06/26 10:10:59;;;;;;;3.83;2.37;;;;;;;;;;5033569;28;20400;-72
2022/06/26 10:13:26;;;;;;;2.00;1.90;;;;;;;;;;5033347;28;20399;-73
2022/06/26 10:15:59;;;;;;;4.83;1.83;;;;;;;;;;5033361;28;20466;-69
2022/06/26 10:18:37;;;;;;;1.70;1.70;;;;;;;;;;5033599;28;20418;-75
2022/06/26 10:21:12;;;;;;;2.60;2.00;;;;;;;;;;5033607;28;20413;-77
2022/06/26 10:23:39;;;;;;;1.97;1.87;;;;;;;;;;5033621;28;20399;-70
2022/06/26 10:26:12;;;;;;;1.80;1.80;;;;;;;;;;5048908;28;20421;-72
2022/06/26 10:28:38;;;;;;;3.00;2.00;;;;;;;;;;5033365;28;20782;-72
2022/06/26 10:31:10;;;;;;;2.03;1.90;;;;;;;;;;5033386;28;20421;-73
2022/06/26 10:33:46;;;;;;;2.93;2.67;;;;;;;;;;5033548;28;20410;-75
2022/06/26 10:36:20;;;;;;;4.20;1.83;;;;;;;;;;5033387;28;20588;-75
2022/06/26 10:38:46;;;;;;;1.73;1.73;;;;;;;;;;5033622;28;20412;-74
2022/06/26 10:44:04;;;;;;;2.40;2.00;;;;;;;;;;5033533;28;20407;-80
2022/06/26 10:46:59;;;;;;;2.00;2.00;;;;;;;;;;5033257;28;20517;-70
2022/06/26 10:49:25;;;;;;;3.17;1.83;;;;;;;;;;5036918;28;20503;-76
2022/06/26 10:51:51;;;;;;;1.30;1.30;;;;;;;;;;5037156;28;20436;-75
2022/06/26 10:54:18;;;;;;;1.50;1.50;;;;;;;;;;5037240;28;20494;-69
2022/06/26 10:56:46;;;;;;;1.80;1.70;;;;;;;;;;5037135;28;20479;-69
2022/06/26 10:59:12;;;;;;;2.50;1.90;;;;;;;;;;5037229;28;20766;-70
2022/06/26 11:01:38;;;;;;;3.03;1.70;;;;;;;;;;5037108;28;20432;-69
2022/06/26 11:04:04;;;;;;;1.50;1.50;;;;;;;;;;5037090;28;20445;-74
2022/06/26 11:06:30;;;;;;;2.10;1.53;;;;;;;;;;5036901;28;20426;-71
2022/06/26 11:08:56;;;;;;;1.40;1.40;;;;;;;;;;5037021;28;20905;-71
2022/06/26 11:11:31;;;;;;;2.00;1.90;;;;;;;;;;5036937;28;20418;-70
2022/06/26 11:13:59;;;;;;;1.50;1.40;;;;;;;;;;5036775;28;20568;-70
2022/06/26 11:16:29;;;;;;;1.87;1.87;;;;;;;;;;5036765;28;20481;-70
2022/06/26 11:18:55;;;;;;;3.40;1.87;;;;;;;;;;5036805;28;20434;-75
2022/06/26 11:21:21;;;;;;;1.70;1.60;;;;;;;;;;5036742;28;20457;-72
2022/06/26 11:23:51;;;;;;;3.70;1.73;;;;;;;;;;5036706;28;20439;-72
2022/06/26 11:26:19;;;;;;;2.40;1.73;;;;;;;;;;5036854;28;20413;-76
2022/06/26 11:28:45;;;;;;;1.40;1.40;;;;;;;;;;5036576;28;20947;-70
2022/06/26 11:31:19;;;;;;;1.37;1.37;;;;;;;;;;5036564;28;20423;-70
2022/06/26 11:33:45;;;;;;;2.03;2.03;;;;;;;;;;5036456;28;20844;-70
2022/06/26 11:36:12;;;;;;;2.40;2.20;;;;;;;;;;5036447;28;20501;-71
2022/06/26 11:38:39;;;;;;;2.00;1.93;;;;;;;;;;5051722;28;20516;-72
2022/06/26 11:41:06;;;;;;;9.20;2.10;;;;;;;;;;5036352;28;20421;-72
2022/06/26 11:43:32;;;;;;;2.70;2.13;;;;;;;;;;5036332;28;20423;-72
2022/06/26 11:45:59;;;;;;;5.60;2.50;;;;;;;;;;5036249;28;20419;-71
2022/06/26 11:48:25;;;;;;;2.53;2.43;;;;;;;;;;5036160;28;20779;-72
2022/06/26 11:50:52;;;;;;;2.57;2.47;;;;;;;;;;5036192;28;20419;-70
2022/06/26 11:53:23;;;;;;;2.53;2.43;;;;;;;;;;5036020;28;20403;-78
2022/06/26 11:55:50;;;;;;;2.93;2.73;;;;;;;;;;5035982;28;20467;-73
2022/06/26 11:58:17;;;;;;;2.37;2.37;;;;;;;;;;5035966;28;20773;-72
2022/06/26 12:00:43;;;;;;;2.23;2.23;;;;;;;;;;5035123;28;20907;-71
2022/06/26 12:03:12;;;;;;;1.80;1.80;;;;;;;;;;5036012;28;20408;-72
2022/06/26 12:05:39;;;;;;;3.87;2.20;;;;;;;;;;5035935;28;20416;-69
2022/06/26 12:08:14;;;;;;;1.80;1.70;;;;;;;;;;5036141;28;20793;-69
2022/06/26 12:10:40;;;;;;;5.50;1.93;;;;;;;;;;5035828;28;20874;-71
2022/06/26 12:13:06;;;;;;;1.73;1.63;;;;;;;;;;5035722;28;20436;-73
2022/06/26 12:15:33;;;;;;;1.83;1.73;;;;;;;;;;5035374;28;20801;-76
2022/06/26 12:18:00;;;;;;;8.33;1.70;;;;;;;;;;5035673;28;20444;-74
2022/06/26 12:20:27;;;;;;;1.77;1.77;;;;;;;;;;5035537;28;20774;-71
2022/06/26 12:22:54;;;;;;;1.50;1.50;;;;;;;;;;5035586;28;20959;-72
2022/06/26 12:25:25;;;;;;;1.63;1.63;;;;;;;;;;5035629;28;20404;-73
2022/06/26 12:27:51;;;;;;;1.80;1.70;;;;;;;;;;5051019;28;20416;-72
2022/06/26 12:30:21;;;;;;;1.80;1.70;;;;;;;;;;5050970;28;20438;-72
2022/06/26 12:32:47;;;;;;;1.50;1.50;;;;;;;;;;5035405;28;20450;-71
2022/06/26 12:35:13;;;;;;;1.60;1.60;;;;;;;;;;5035122;28;20471;-71
2022/06/26 12:37:39;;;;;;;1.30;1.30;;;;;;;;;;5035335;28;20408;-71
2022/06/26 12:40:06;;;;;;;2.20;1.57;;;;;;;;;;5035256;28;20416;-70
2022/06/26 12:42:32;;;;;;;1.67;1.57;;;;;;;;;;5050161;28;20931;-70
2022/06/26 12:44:57;;;;;;;1.67;1.50;;;;;;;;;;5034892;28;20434;-70
2022/06/26 12:47:23;;;;;;;1.67;1.57;;;;;;;;;;5035113;28;20400;-71
2022/06/26 12:49:50;;;;;;;1.83;1.73;;;;;;;;;;5035113;28;20408;-70
2022/06/26 12:52:16;;;;;;;8.73;2.50;;;;;;;;;;5034986;28;20438;-72
2022/06/26 12:54:42;;;;;;;1.03;1.03;;;;;;;;;;5034957;28;20427;-72
2022/06/26 12:57:08;;;;;;;2.00;2.00;;;;;;;;;;5034987;28;20899;-71
2022/06/26 12:59:34;;;;;;;1.40;1.40;;;;;;;;;;5034902;28;20411;-70
2022/06/26 13:02:00;;;;;;;1.90;1.33;;;;;;;;;;5050111;28;20569;-72
2022/06/26 13:04:26;;;;;;;3.20;1.60;;;;;;;;;;5050026;28;20482;-75
2022/06/26 13:06:52;;;;;;;1.30;1.30;;;;;;;;;;5034628;28;20408;-74
2022/06/26 13:09:18;;;;;;;1.60;1.20;;;;;;;;;;5034673;28;20883;-72
2022/06/26 13:11:44;;;;;;;1.23;1.10;;;;;;;;;;5034544;28;20969;-71
2022/06/26 13:14:10;;;;;;;2.10;2.10;;;;;;;;;;5034439;28;20459;-73
2022/06/26 13:16:40;;;;;;;1.47;1.47;;;;;;;;;;5034373;28;20472;-72
2022/06/26 13:19:06;;;;;;;1.50;1.37;;;;;;;;;;5034588;28;20416;-73
2022/06/26 13:21:32;;;;;;;1.80;1.70;;;;;;;;;;5034540;28;20431;-71
2022/06/26 13:23:58;;;;;;;1.50;1.40;;;;;;;;;;5034338;28;20458;-72
2022/06/26 13:26:24;;;;;;;3.17;1.50;;;;;;;;;;5034459;28;20409;-73
2022/06/26 13:28:50;;;;;;;1.20;1.20;;;;;;;;;;5034636;28;20424;-72
2022/06/26 13:31:17;;;;;;;2.50;1.10;;;;;;;;;;5034410;28;20425;-68
2022/06/26 13:33:43;;;;;;;9.30;1.57;;;;;;;;;;5035001;28;20872;-74
2022/06/26 13:36:09;;;;;;;1.17;1.17;;;;;;;;;;5034403;28;20791;-73
2022/06/26 13:38:36;;;;;;;1.20;1.20;;;;;;;;;;5049565;28;20455;-75
2022/06/26 13:41:02;;;;;;;1.43;1.33;;;;;;;;;;5034096;28;20412;-73
2022/06/26 13:43:28;;;;;;;3.27;1.50;;;;;;;;;;5034159;28;20413;-73
2022/06/26 13:45:54;;;;;;;1.23;1.23;;;;;;;;;;5034034;28;20420;-73
2022/06/26 13:48:21;;;;;;;1.30;1.30;;;;;;;;;;5034014;28;20953;-74
2022/06/26 13:50:47;;;;;;;5.20;1.30;;;;;;;;;;5049263;28;20779;-72
2022/06/26 13:53:13;;;;;;;1.30;1.30;;;;;;;;;;5033937;28;20415;-73
2022/06/26 13:55:39;;;;;;;1.40;1.40;;;;;;;;;;5033820;28;20468;-71
2022/06/26 13:58:04;;;;;;;5.10;1.33;;;;;;;;;;5033957;28;20404;-75
2022/06/26 14:00:30;;;;;;;1.60;1.60;;;;;;;;;;5033835;28;20419;-72
2022/06/26 14:02:56;;;;;;;6.30;1.50;;;;;;;;;;5033876;28;20434;-72
2022/06/26 14:05:23;;;;;;;2.10;2.10;;;;;;;;;;5049148;28;20428;-75
2022/06/26 14:07:49;;;;;;;1.40;1.40;;;;;;;;;;5033661;28;20414;-75
2022/06/26 14:10:15;;;;;;;5.13;1.67;;;;;;;;;;5033730;28;20826;-76
2022/06/26 14:12:41;;;;;;;1.60;1.60;;;;;;;;;;5033762;28;20499;-77
2022/06/26 14:15:07;;;;;;;1.70;1.60;;;;;;;;;;5033554;28;20901;-82
2022/06/26 14:17:33;;;;;;;1.90;1.47;;;;;;;;;;5033702;28;20412;-76
2022/06/26 14:19:59;;;;;;;1.87;1.23;;;;;;;;;;5033760;28;20490;-71
2022/06/26 14:27:55;;;;;;;3.00;1.60;;;;;;;;;;5033450;28;20455;-73
2022/06/26 14:30:21;;;;;;;2.00;1.50;;;;;;;;;;5033454;28;20945;-69
2022/06/26 14:32:47;;;;;;;1.50;1.40;;;;;;;;;;5033526;28;20388;-71
2022/06/26 14:35:13;;;;;;;1.40;1.40;;;;;;;;;;5048753;28;20485;-71
2022/06/26 14:37:39;;;;;;;1.40;1.40;;;;;;;;;;5033560;28;20889;-70
2022/06/26 14:40:06;;;;;;;2.20;1.43;;;;;;;;;;5033470;28;20416;-72
2022/06/26 14:42:32;;;;;;;1.90;1.27;;;;;;;;;;5033430;28;20436;-70
2022/06/26 14:44:58;;;;;;;1.37;1.37;;;;;;;;;;5033489;28;20725;-71
2022/06/26 14:47:24;;;;;;;1.30;1.30;;;;;;;;;;5033564;28;20412;-74
2022/06/26 14:49:50;;;;;;;1.30;1.30;;;;;;;;;;5033664;28;20450;-72
2022/06/26 14:52:16;;;;;;;1.30;1.30;;;;;;;;;;5033348;28;20420;-70
2022/06/26 14:54:42;;;;;;;1.57;1.47;;;;;;;;;;5033652;28;20404;-70
2022/06/26 14:57:08;;;;;;;3.70;1.47;;;;;;;;;;5033237;28;20982;-71
2022/06/26 14:59:37;;;;;;;1.30;1.30;;;;;;;;;;5033613;28;20436;-73
2022/06/26 15:02:04;;;;;;;1.40;1.30;;;;;;;;;;5048699;28;20424;-72